Manas, China
Current Conditions -  °F | °C
As of 2:30 PM on Saturday 29 Nov 2014 (Local Time) from ZWWW Reporting Station
Clear Clear  
Wind Chill: 23°   Ceiling: Unl
Heat Index: 23°   Visibility: 6mi
Dew Point:   Wind: 2mph
Humidity: 54%   Direction: NA
Pressure: 30.74"   Gusts: NA
Location:  44.3°N, 86.22°E
Report Text: ZWWW 290630Z VRB01MPS CAVOK M05/M13 Q1041 NOSIG
Loading
Personal Weather Stations






























Interactive Weather Map New forecast layout! Learn more

10-Day Weather Forecast

Advertisements
Track Severe Weather on mobile